Back to Top

Language: 

My Weather Underground Personal Weather Station Historical Data with Graphs...

Delerius Weather Station Historical Data
Daily Summary for June 19, 2017 Units:  Metric    English   Both
« Previous Day
Next Day »
Daily Weekly Monthly Yearly Custom
  High: Low: Average:
Temperature: 31.7 °C 14.7 °C 24 °C
Dew Point: 17.8 °C 13.1 °C 15.4 °C
Humidity: 91 % 35 % 62 %
Wind Speed: 14.5 km/h 0 km/h 4.3 km/h
Wind Gust: 24.1 km/h - -
Wind:- - WNW
Pressure: 1021.2 hPa 1016.8 hPa -
Precipitation: 0 mm    
Historical Graphs
 
 
Tabular Data for June 19, 2017
Time Temperature Dew Point Pressure Wind Wind Speed Wind Gust Humidity Rainfall Rate (Hourly) solar Conditions
00:04 18.9 °C 15.4 °C 1021.2 hPa Calm     80 % 0 mm 0 W/m2
00:09 18.8 °C 15.4 °C 1021.2 hPa Calm     81 % 0 mm 0 W/m2
00:14 18.7 °C 15.4 °C 1021.2 hPa Calm     81 % 0 mm 0 W/m2
00:19 18.6 °C 15.3 °C 1021.2 hPa Calm     81 % 0 mm 0 W/m2
00:24 18.4 °C 15.3 °C 1021.2 hPa Calm     82 % 0 mm 0 W/m2
00:29 18.3 °C 15.2 °C 1021.2 hPa Calm     82 % 0 mm 0 W/m2
00:34 18.2 °C 15.1 °C 1021.2 hPa Calm   1.6 km/h 82 % 0 mm 0 W/m2
00:39 18.1 °C 15.2 °C 1021.2 hPa Calm   3.2 km/h 83 % 0 mm 0 W/m2
00:44 18 °C 15.1 °C 1021.2 hPa Calm   3.2 km/h 83 % 0 mm 0 W/m2
00:50 17.9 °C 14.9 °C 1020.9 hPa Calm     83 % 0 mm 0 W/m2
00:55 17.8 °C 14.9 °C 1021.2 hPa Calm     83 % 0 mm 0 W/m2
01:00 17.7 °C 14.9 °C 1020.9 hPa Calm     84 % 0 mm 0 W/m2
01:05 17.6 °C 14.9 °C 1020.9 hPa Calm     84 % 0 mm 0 W/m2
01:10 17.5 °C 14.8 °C 1020.9 hPa Calm     84 % 0 mm 0 W/m2
01:15 17.4 °C 14.8 °C 1020.9 hPa Calm     85 % 0 mm 0 W/m2
01:20 17.3 °C 14.8 °C 1020.9 hPa Calm     85 % 0 mm 0 W/m2
01:25 17.2 °C 14.7 °C 1020.9 hPa Calm     85 % 0 mm 0 W/m2
01:30 17.2 °C 14.7 °C 1020.9 hPa Calm     85 % 0 mm 0 W/m2
01:35 17.1 °C 14.7 °C 1020.9 hPa Calm     86 % 0 mm 0 W/m2
01:40 17.1 °C 14.7 °C 1020.9 hPa Calm     86 % 0 mm 0 W/m2
01:45 17 °C 14.7 °C 1020.9 hPa Calm     86 % 0 mm 0 W/m2
01:50 16.9 °C 14.6 °C 1020.9 hPa Calm     86 % 0 mm 0 W/m2
01:55 17 °C 14.7 °C 1020.5 hPa Calm   1.6 km/h 86 % 0 mm 0 W/m2
02:00 17.1 °C 14.7 °C 1020.5 hPa Calm   1.6 km/h 86 % 0 mm 0 W/m2
02:05 17 °C 14.7 °C 1020.5 hPa Calm     86 % 0 mm 0 W/m2
02:10 16.9 °C 14.3 °C 1020.5 hPa Calm     85 % 0 mm 0 W/m2
02:15 16.8 °C 14.4 °C 1020.5 hPa Calm     86 % 0 mm 0 W/m2
02:20 16.7 °C 14.3 °C 1020.5 hPa Calm     86 % 0 mm 0 W/m2
02:25 16.6 °C 14.2 °C 1020.5 hPa Calm     86 % 0 mm 0 W/m2
02:30 16.6 °C 14.2 °C 1020.5 hPa Calm     86 % 0 mm 0 W/m2
02:35 16.4 °C 14.1 °C 1020.5 hPa Calm     86 % 0 mm 0 W/m2
02:40 16.4 °C 14.2 °C 1020.5 hPa Calm     87 % 0 mm 0 W/m2
02:45 16.3 °C 14.1 °C 1020.5 hPa Calm     87 % 0 mm 0 W/m2
02:50 16.3 °C 14.1 °C 1020.5 hPa Calm     87 % 0 mm 0 W/m2
02:55 16.2 °C 14.1 °C 1020.5 hPa Calm     87 % 0 mm 0 W/m2
03:00 16.2 °C 14.1 °C 1020.5 hPa Calm     87 % 0 mm 0 W/m2
03:01 16.2 °C 14.1 °C 1020.5 hPa Calm     87 % 0 mm 0 W/m2
03:06 16.1 °C 13.9 °C 1020.2 hPa Calm     87 % 0 mm 0 W/m2
03:09 16.1 °C 13.9 °C 1020.2 hPa Calm     87 % 0 mm 0 W/m2
03:14 16.1 °C 14.1 °C 1020.2 hPa Calm     88 % 0 mm 0 W/m2
03:19 16.1 °C 14.1 °C 1020.5 hPa Calm   1.6 km/h 88 % 0 mm 0 W/m2
03:20 16.1 °C 14.1 °C 1020.2 hPa Calm   1.6 km/h 88 % 0 mm 0 W/m2
03:24 16.1 °C 14.1 °C 1020.2 hPa Calm   3.2 km/h 88 % 0 mm 0 W/m2
03:29 15.9 °C 13.9 °C 1020.2 hPa Calm   3.2 km/h 88 % 0 mm 0 W/m2
03:35 15.9 °C 13.9 °C 1020.2 hPa Calm   3.2 km/h 88 % 0 mm 0 W/m2
03:40 15.8 °C 13.8 °C 1020.2 hPa Calm   3.2 km/h 88 % 0 mm 0 W/m2
03:45 15.8 °C 13.8 °C 1020.2 hPa Calm     88 % 0 mm 0 W/m2
03:50 15.8 °C 13.8 °C 1019.9 hPa Calm     88 % 0 mm 0 W/m2
03:55 15.7 °C 13.7 °C 1019.9 hPa Calm   3.2 km/h 88 % 0 mm 0 W/m2
04:00 15.5 °C 13.5 °C 1019.9 hPa Calm   3.2 km/h 88 % 0 mm 0 W/m2
04:05 15.4 °C 13.4 °C 1019.9 hPa Calm     88 % 0 mm 0 W/m2
04:10 15.3 °C 13.5 °C 1019.9 hPa Calm     89 % 0 mm 0 W/m2
04:15 15.2 °C 13.4 °C 1019.9 hPa Calm     89 % 0 mm 0 W/m2
04:20 15.2 °C 13.4 °C 1019.9 hPa Calm     89 % 0 mm 0 W/m2
04:25 15.1 °C 13.3 °C 1019.9 hPa Calm     89 % 0 mm 0 W/m2
04:30 15 °C 13.2 °C 1019.9 hPa Calm     89 % 0 mm 0 W/m2
04:35 14.9 °C 13.1 °C 1019.9 hPa Calm     89 % 0 mm 0 W/m2
04:40 14.9 °C 13.3 °C 1019.9 hPa Calm     90 % 0 mm 5 W/m2
04:45 14.8 °C 13.2 °C 1019.9 hPa Calm     90 % 0 mm 7 W/m2
04:49 14.8 °C 13.2 °C 1019.9 hPa Calm     90 % 0 mm 7 W/m2
04:54 14.7 °C 13.1 °C 1019.9 hPa Calm     90 % 0 mm 9 W/m2
04:59 14.7 °C 13.1 °C 1019.9 hPa NW 1.6 km/h 6.4 km/h 90 % 0 mm 11 W/m2
05:04 14.7 °C 13.1 °C 1019.9 hPa NW 1.6 km/h 6.4 km/h 90 % 0 mm 12 W/m2
05:09 14.7 °C 13.2 °C 1019.9 hPa Calm   4.8 km/h 91 % 0 mm 14 W/m2
05:14 14.7 °C 13.2 °C 1019.9 hPa Calm   1.6 km/h 91 % 0 mm 16 W/m2
05:19 14.7 °C 13.2 °C 1019.9 hPa Calm     91 % 0 mm 18 W/m2
05:24 14.7 °C 13.1 °C 1019.9 hPa Calm     90 % 0 mm 19 W/m2
05:29 14.7 °C 13.1 °C 1019.9 hPa Calm     90 % 0 mm 23 W/m2
05:34 14.7 °C 13.1 °C 1019.9 hPa Calm     90 % 0 mm 25 W/m2
05:39 14.8 °C 13.3 °C 1019.9 hPa Calm   1.6 km/h 91 % 0 mm 26 W/m2
05:44 14.8 °C 13.3 °C 1019.9 hPa Calm   1.6 km/h 91 % 0 mm 30 W/m2
05:49 14.9 °C 13.4 °C 1019.9 hPa Calm   1.6 km/h 91 % 0 mm 33 W/m2
05:54 14.9 °C 13.4 °C 1019.9 hPa Calm     91 % 0 mm 49 W/m2
05:59 15 °C 13.6 °C 1019.9 hPa Calm     91 % 0 mm 95 W/m2
06:04 15.2 °C 13.7 °C 1019.9 hPa Calm   1.6 km/h 91 % 0 mm 100 W/m2
06:09 15.4 °C 13.8 °C 1019.9 hPa Calm   3.2 km/h 90 % 0 mm 79 W/m2
06:14 15.6 °C 13.9 °C 1019.9 hPa Calm   3.2 km/h 90 % 0 mm 60 W/m2
06:19 15.7 °C 13.9 °C 1019.9 hPa Calm   3.2 km/h 89 % 0 mm 47 W/m2
06:24 15.8 °C 14 °C 1019.9 hPa Calm   1.6 km/h 89 % 0 mm 60 W/m2
06:29 16.1 °C 14.3 °C 1019.9 hPa Calm     89 % 0 mm 46 W/m2
06:34 16.2 °C 14.2 °C 1019.9 hPa Calm     88 % 0 mm 44 W/m2
06:39 16.4 °C 14.4 °C 1019.9 hPa Calm     88 % 0 mm 46 W/m2
06:44 16.6 °C 14.6 °C 1019.9 hPa Calm   3.2 km/h 88 % 0 mm 47 W/m2
06:49 16.8 °C 14.8 °C 1019.9 hPa NW 1.6 km/h 3.2 km/h 88 % 0 mm 47 W/m2
06:54 17.1 °C 15.1 °C 1019.9 hPa Calm   3.2 km/h 88 % 0 mm 49 W/m2
06:59 17.3 °C 15.3 °C 1019.9 hPa Calm   3.2 km/h 88 % 0 mm 51 W/m2
07:04 17.6 °C 15.4 °C 1019.9 hPa Calm   3.2 km/h 87 % 0 mm 54 W/m2
07:09 17.8 °C 15.4 °C 1019.9 hPa Calm   3.2 km/h 86 % 0 mm 65 W/m2
07:14 18.1 °C 15.6 °C 1019.9 hPa Calm     85 % 0 mm 220 W/m2
07:19 18.3 °C 15.6 °C 1019.9 hPa Calm     84 % 0 mm 269 W/m2
07:24 18.7 °C 15.8 °C 1019.9 hPa Calm     83 % 0 mm 288 W/m2
07:29 19.2 °C 16.1 °C 1019.9 hPa Calm     82 % 0 mm 301 W/m2
07:34 19.8 °C 16.1 °C 1019.9 hPa Calm     79 % 0 mm 318 W/m2
07:39 20.4 °C 16.2 °C 1019.5 hPa Calm     77 % 0 mm 327 W/m2
07:44 20.9 °C 16.3 °C 1019.9 hPa Calm     75 % 0 mm 346 W/m2
07:49 21.4 °C 16.3 °C 1019.5 hPa Calm   1.6 km/h 73 % 0 mm 359 W/m2
07:54 21.8 °C 16.5 °C 1019.5 hPa Calm   1.6 km/h 72 % 0 mm 376 W/m2
08:00 22.2 °C 16.4 °C 1019.5 hPa Calm   1.6 km/h 70 % 0 mm 388 W/m2
08:04 22.8 °C 16.6 °C 1019.5 hPa Calm   1.6 km/h 68 % 0 mm 399 W/m2
08:10 23.6 °C 16.9 °C 1019.5 hPa Calm     66 % 0 mm 411 W/m2
08:15 24.1 °C 17.1 °C 1019.5 hPa Calm     65 % 0 mm 427 W/m2
08:20 24.6 °C 17.1 °C 1019.5 hPa Calm   6.4 km/h 63 % 0 mm 439 W/m2
08:25 25.1 °C 16.8 °C 1019.5 hPa NW 1.6 km/h 6.4 km/h 60 % 0 mm 457 W/m2
08:30 24.9 °C 16.1 °C 1019.5 hPa NW 3.2 km/h 6.4 km/h 58 % 0 mm 471 W/m2
08:35 25.1 °C 16.5 °C 1019.5 hPa NW 1.6 km/h 6.4 km/h 59 % 0 mm 482 W/m2
08:40 25.3 °C 15.3 °C 1019.5 hPa WNW 1.6 km/h 6.4 km/h 54 % 0 mm 490 W/m2
08:45 25.5 °C 15.5 °C 1019.5 hPa WNW 1.6 km/h 6.4 km/h 54 % 0 mm 501 W/m2
08:50 25.6 °C 15.6 °C 1019.5 hPa WNW 1.6 km/h 6.4 km/h 54 % 0 mm 517 W/m2
08:55 25.9 °C 15.9 °C 1019.2 hPa SSW 1.6 km/h 6.4 km/h 54 % 0 mm 533 W/m2
08:56 25.9 °C 15.9 °C 1019.2 hPa South 1.6 km/h 6.4 km/h 54 % 0 mm 534 W/m2
09:01 26.2 °C 15.6 °C 1019.2 hPa South 1.6 km/h 8 km/h 52 % 0 mm 555 W/m2
09:06 26.2 °C 15.3 °C 1019.2 hPa South 3.2 km/h 8 km/h 51 % 0 mm 446 W/m2
09:12 26.2 °C 15.6 °C 1019.2 hPa South 1.6 km/h 6.4 km/h 52 % 0 mm 548 W/m2
09:17 26.2 °C 15.6 °C 1019.2 hPa South 1.6 km/h 8 km/h 52 % 0 mm 585 W/m2
09:18 26.1 °C 15.5 °C 1019.2 hPa South 3.2 km/h 8 km/h 52 % 0 mm 587 W/m2
09:23 26.1 °C 15.5 °C 1019.2 hPa South 3.2 km/h 8 km/h 52 % 0 mm 599 W/m2
09:28 26.3 °C 15.7 °C 1019.2 hPa South 1.6 km/h 6.4 km/h 52 % 0 mm 610 W/m2
09:33 26.7 °C 15.4 °C 1019.2 hPa WSW 1.6 km/h 6.4 km/h 50 % 0 mm 622 W/m2
09:39 27.1 °C 15.8 °C 1019.2 hPa West 1.6 km/h 6.4 km/h 50 % 0 mm 633 W/m2
09:44 27.7 °C 16 °C 1019.2 hPa WNW 1.6 km/h 6.4 km/h 49 % 0 mm 645 W/m2
09:49 28.1 °C 16.1 °C 1019.2 hPa NW 1.6 km/h 8 km/h 48 % 0 mm 656 W/m2
09:54 28 °C 15.9 °C 1019.2 hPa West 3.2 km/h 8 km/h 48 % 0 mm 664 W/m2
09:59 28.1 °C 16.1 °C 1019.2 hPa West 1.6 km/h 8 km/h 48 % 0 mm 675 W/m2
10:04 28 °C 16.3 °C 1018.8 hPa West 1.6 km/h 6.4 km/h 49 % 0 mm 686 W/m2
10:09 28.2 °C 16.4 °C 1019.2 hPa West 1.6 km/h 6.4 km/h 49 % 0 mm 698 W/m2
10:14 28.3 °C 16.6 °C 1018.8 hPa WNW 1.6 km/h 4.8 km/h 49 % 0 mm 712 W/m2
10:19 28.6 °C 17.2 °C 1018.8 hPa SSW 1.6 km/h 9.7 km/h 50 % 0 mm 719 W/m2
10:24 28.7 °C 16.9 °C 1018.8 hPa WSW 3.2 km/h 9.7 km/h 49 % 0 mm 735 W/m2
10:29 28.7 °C 16.9 °C 1018.8 hPa West 4.8 km/h 11.3 km/h 49 % 0 mm 728 W/m2
10:34 28.4 °C 17 °C 1018.8 hPa West 4.8 km/h 11.3 km/h 50 % 0 mm 761 W/m2
10:39 28.3 °C 16.9 °C 1018.8 hPa West 3.2 km/h 9.7 km/h 50 % 0 mm 737 W/m2
10:44 28.6 °C 17.2 °C 1018.8 hPa West 1.6 km/h 11.3 km/h 50 % 0 mm 780 W/m2
10:49 29.1 °C 17.3 °C 1018.8 hPa West 1.6 km/h 11.3 km/h 49 % 0 mm 749 W/m2
10:54 29.3 °C 17.5 °C 1018.8 hPa WNW 4.8 km/h 14.5 km/h 49 % 0 mm 821 W/m2
10:59 29.3 °C 17.5 °C 1018.8 hPa WNW 6.4 km/h 14.5 km/h 49 % 0 mm 703 W/m2
11:04 29.1 °C 17.6 °C 1018.8 hPa NW 3.2 km/h 11.3 km/h 50 % 0 mm 770 W/m2
11:09 28.8 °C 17.7 °C 1018.8 hPa SW 3.2 km/h 9.7 km/h 51 % 0 mm 707 W/m2
11:14 28.6 °C 17.8 °C 1018.8 hPa South 4.8 km/h 11.3 km/h 52 % 0 mm 729 W/m2
11:19 28.4 °C 17.3 °C 1018.8 hPa South 6.4 km/h 12.9 km/h 51 % 0 mm 687 W/m2
11:30 28.3 °C 17.5 °C 1018.5 hPa SSW 3.2 km/h 8 km/h 52 % 0 mm 777 W/m2
11:35 28.6 °C 17.8 °C 1018.5 hPa SW 3.2 km/h 9.7 km/h 52 % 0 mm 777 W/m2
11:40 28.8 °C 17.3 °C 1018.5 hPa NW 3.2 km/h 11.3 km/h 50 % 0 mm 846 W/m2
11:45 28.9 °C 17.1 °C 1018.5 hPa WNW 4.8 km/h 14.5 km/h 49 % 0 mm 837 W/m2
11:50 29 °C 16.9 °C 1018.5 hPa WSW 6.4 km/h 17.7 km/h 48 % 0 mm 816 W/m2
11:55 29.5 °C 16.7 °C 1018.5 hPa WNW 9.7 km/h 20.9 km/h 46 % 0 mm 788 W/m2
12:00 29.8 °C 15.5 °C 1018.5 hPa West 12.9 km/h 22.5 km/h 42 % 0 mm 905 W/m2
12:05 30 °C 16.4 °C 1018.5 hPa West 12.9 km/h 22.5 km/h 44 % 0 mm 937 W/m2
12:10 30.1 °C 16.5 °C 1018.5 hPa WNW 11.3 km/h 20.9 km/h 44 % 0 mm 891 W/m2
12:15 30.1 °C 16.8 °C 1018.5 hPa WNW 8 km/h 17.7 km/h 45 % 0 mm 698 W/m2
12:20 30.1 °C 15.8 °C 1018.5 hPa West 9.7 km/h 22.5 km/h 42 % 0 mm 735 W/m2
12:25 30.1 °C 15.8 °C 1018.2 hPa West 11.3 km/h 22.5 km/h 42 % 0 mm 693 W/m2
12:30 29.9 °C 16.3 °C 1018.2 hPa WSW 8 km/h 17.7 km/h 44 % 0 mm 791 W/m2
12:35 30.1 °C 16.5 °C 1018.5 hPa West 8 km/h 16.1 km/h 44 % 0 mm 357 W/m2
12:40 30.1 °C 16.2 °C 1018.2 hPa West 9.7 km/h 20.9 km/h 43 % 0 mm 751 W/m2
12:45 30.3 °C 15.9 °C 1018.2 hPa West 9.7 km/h 20.9 km/h 42 % 0 mm 761 W/m2
12:50 30.4 °C 16.1 °C 1018.2 hPa WNW 8 km/h 20.9 km/h 42 % 0 mm 861 W/m2
12:52 30.4 °C 16.1 °C 1018.2 hPa WNW 9.7 km/h 20.9 km/h 42 % 0 mm 784 W/m2
12:57 30.5 °C 16.1 °C 1018.2 hPa WNW 11.3 km/h 20.9 km/h 42 % 0 mm 747 W/m2
13:02 30.6 °C 16.2 °C 1018.2 hPa West 9.7 km/h 16.1 km/h 42 % 0 mm 847 W/m2
13:07 30.4 °C 16.4 °C 1018.2 hPa West 9.7 km/h 16.1 km/h 43 % 0 mm 949 W/m2
13:12 30.4 °C 16.1 °C 1018.2 hPa WSW 11.3 km/h 19.3 km/h 42 % 0 mm 886 W/m2
13:17 30.2 °C 16.2 °C 1018.2 hPa WSW 12.9 km/h 22.5 km/h 43 % 0 mm 909 W/m2
13:22 30.1 °C 15.8 °C 1018.2 hPa WSW 12.9 km/h 22.5 km/h 42 % 0 mm 953 W/m2
13:27 30.3 °C 15.9 °C 1017.8 hPa West 11.3 km/h 22.5 km/h 42 % 0 mm 888 W/m2
13:32 30.6 °C 15.8 °C 1017.8 hPa WNW 11.3 km/h 22.5 km/h 41 % 0 mm 633 W/m2
13:37 30.8 °C 16 °C 1017.8 hPa WNW 11.3 km/h 20.9 km/h 41 % 0 mm 768 W/m2
13:42 31 °C 16.2 °C 1017.8 hPa WNW 11.3 km/h 17.7 km/h 41 % 0 mm 812 W/m2
13:47 31.1 °C 15.9 °C 1017.8 hPa WNW 11.3 km/h 19.3 km/h 40 % 0 mm 803 W/m2
13:52 31.1 °C 16.3 °C 1017.8 hPa WNW 11.3 km/h 22.5 km/h 41 % 0 mm 800 W/m2
13:57 31 °C 16.2 °C 1017.8 hPa West 11.3 km/h 22.5 km/h 41 % 0 mm 798 W/m2
14:02 30.7 °C 16.3 °C 1017.8 hPa West 11.3 km/h 20.9 km/h 42 % 0 mm 953 W/m2
14:07 30.4 °C 15.7 °C 1017.8 hPa West 12.9 km/h 24.1 km/h 41 % 0 mm 919 W/m2
14:12 30.4 °C 15.7 °C 1017.5 hPa West 12.9 km/h 24.1 km/h 41 % 0 mm 925 W/m2
14:17 30.8 °C 16 °C 1017.8 hPa WNW 14.5 km/h 24.1 km/h 41 % 0 mm 225 W/m2
14:22 30.8 °C 15.7 °C 1017.8 hPa WNW 14.5 km/h 24.1 km/h 40 % 0 mm 930 W/m2
14:27 30.6 °C 15.8 °C 1017.5 hPa West 9.7 km/h 19.3 km/h 41 % 0 mm 881 W/m2
14:32 30.8 °C 15.7 °C 1017.5 hPa West 11.3 km/h 24.1 km/h 40 % 0 mm 833 W/m2
14:37 30.9 °C 15.3 °C 1017.5 hPa WNW 14.5 km/h 24.1 km/h 39 % 0 mm 893 W/m2
14:42 31.1 °C 15.1 °C 1017.5 hPa WNW 14.5 km/h 24.1 km/h 38 % 0 mm 821 W/m2
14:47 31.1 °C 14.7 °C 1017.5 hPa West 12.9 km/h 22.5 km/h 37 % 0 mm 870 W/m2
14:52 31.1 °C 14.7 °C 1017.5 hPa West 12.9 km/h 22.5 km/h 37 % 0 mm 858 W/m2
14:57 31.4 °C 14.9 °C 1017.5 hPa WNW 12.9 km/h 20.9 km/h 37 % 0 mm 867 W/m2
15:02 31.4 °C 14.9 °C 1017.5 hPa WNW 11.3 km/h 20.9 km/h 37 % 0 mm 868 W/m2
15:08 31.6 °C 14.7 °C 1017.5 hPa WNW 9.7 km/h 20.9 km/h 36 % 0 mm 800 W/m2
15:13 31.7 °C 14.3 °C 1017.2 hPa West 11.3 km/h 20.9 km/h 35 % 0 mm 628 W/m2
15:18 31.1 °C 14.3 °C 1017.5 hPa WSW 11.3 km/h 16.1 km/h 36 % 0 mm 601 W/m2
15:23 31 °C 15 °C 1017.5 hPa West 12.9 km/h 24.1 km/h 38 % 0 mm 844 W/m2
15:28 31.2 °C 15.2 °C 1017.5 hPa WNW 12.9 km/h 24.1 km/h 38 % 0 mm 396 W/m2
15:33 31.2 °C 15.2 °C 1017.5 hPa WNW 11.3 km/h 22.5 km/h 38 % 0 mm 791 W/m2
15:38 31.2 °C 14.8 °C 1017.5 hPa WNW 11.3 km/h 22.5 km/h 37 % 0 mm 650 W/m2
15:43 31 °C 15.4 °C 1017.5 hPa WNW 11.3 km/h 17.7 km/h 39 % 0 mm 731 W/m2
15:48 31.1 °C 15.5 °C 1017.5 hPa WNW 11.3 km/h 19.3 km/h 39 % 0 mm 559 W/m2
15:53 31.1 °C 15.1 °C 1017.5 hPa WNW 11.3 km/h 19.3 km/h 38 % 0 mm 691 W/m2
15:58 31.2 °C 14.8 °C 1017.2 hPa NW 11.3 km/h 19.3 km/h 37 % 0 mm 464 W/m2
16:03 31.1 °C 15.1 °C 1017.2 hPa WNW 9.7 km/h 19.3 km/h 38 % 0 mm 599 W/m2
16:08 30.9 °C 15.3 °C 1017.2 hPa West 9.7 km/h 17.7 km/h 39 % 0 mm 722 W/m2
16:13 31.2 °C 15.6 °C 1017.2 hPa West 11.3 km/h 19.3 km/h 39 % 0 mm 686 W/m2
16:18 31.1 °C 15.5 °C 1017.2 hPa WNW 11.3 km/h 19.3 km/h 39 % 0 mm 564 W/m2
16:23 31.1 °C 15.5 °C 1017.2 hPa West 8 km/h 16.1 km/h 39 % 0 mm 561 W/m2
16:28 31.1 °C 15.5 °C 1017.2 hPa WNW 8 km/h 17.7 km/h 39 % 0 mm 628 W/m2
16:33 31.2 °C 15.2 °C 1017.2 hPa WNW 9.7 km/h 19.3 km/h 38 % 0 mm 606 W/m2
16:38 31.3 °C 14.9 °C 1016.8 hPa NW 9.7 km/h 20.9 km/h 37 % 0 mm 612 W/m2
16:43 31.4 °C 15.4 °C 1017.2 hPa WNW 8 km/h 20.9 km/h 38 % 0 mm 577 W/m2
16:48 31.4 °C 15.8 °C 1016.8 hPa WNW 8 km/h 20.9 km/h 39 % 0 mm 485 W/m2
16:53 31.3 °C 15.7 °C 1017.2 hPa WNW 9.7 km/h 20.9 km/h 39 % 0 mm 452 W/m2
16:58 31.2 °C 15.2 °C 1016.8 hPa NW 11.3 km/h 19.3 km/h 38 % 0 mm 494 W/m2
17:03 31 °C 15.4 °C 1017.2 hPa NW 11.3 km/h 17.7 km/h 39 % 0 mm 308 W/m2
17:08 30.9 °C 15.7 °C 1016.8 hPa WNW 9.7 km/h 16.1 km/h 40 % 0 mm 415 W/m2
17:13 30.9 °C 15.3 °C 1016.8 hPa WNW 9.7 km/h 16.1 km/h 39 % 0 mm 510 W/m2
17:18 30.9 °C 15.7 °C 1016.8 hPa WNW 9.7 km/h 19.3 km/h 40 % 0 mm 394 W/m2
17:23 30.7 °C 15.9 °C 1016.8 hPa WNW 11.3 km/h 19.3 km/h 41 % 0 mm 276 W/m2
17:28 30.4 °C 15.7 °C 1016.8 hPa NW 9.7 km/h 19.3 km/h 41 % 0 mm 297 W/m2
17:33 30.2 °C 15.9 °C 1016.8 hPa NW 8 km/h 16.1 km/h 42 % 0 mm 374 W/m2
17:38 30.1 °C 15.8 °C 1016.8 hPa NW 8 km/h 16.1 km/h 42 % 0 mm 309 W/m2
17:43 30.2 °C 16.2 °C 1016.8 hPa NW 8 km/h 17.7 km/h 43 % 0 mm 346 W/m2
17:48 30.2 °C 15.9 °C 1016.8 hPa WNW 9.7 km/h 17.7 km/h 42 % 0 mm 304 W/m2
17:53 30.1 °C 16.2 °C 1016.8 hPa WNW 9.7 km/h 17.7 km/h 43 % 0 mm 265 W/m2
17:58 30 °C 16.1 °C 1016.8 hPa WNW 11.3 km/h 17.7 km/h 43 % 0 mm 366 W/m2
18:03 30 °C 16.4 °C 1016.8 hPa NW 9.7 km/h 17.7 km/h 44 % 0 mm 288 W/m2
18:08 29.8 °C 16.2 °C 1016.8 hPa NW 9.7 km/h 17.7 km/h 44 % 0 mm 225 W/m2
18:13 29.7 °C 16.2 °C 1016.8 hPa NW 9.7 km/h 14.5 km/h 44 % 0 mm 323 W/m2
18:18 29.7 °C 16.5 °C 1016.8 hPa NW 9.7 km/h 14.5 km/h 45 % 0 mm 364 W/m2
18:24 29.7 °C 16.5 °C 1016.8 hPa NW 9.7 km/h 14.5 km/h 45 % 0 mm 292 W/m2
18:29 29.7 °C 16.2 °C 1016.8 hPa NW 9.7 km/h 16.1 km/h 44 % 0 mm 207 W/m2
18:34 29.5 °C 16.3 °C 1016.8 hPa NW 11.3 km/h 16.1 km/h 45 % 0 mm 183 W/m2
18:39 29.2 °C 16.4 °C 1016.8 hPa NW 11.3 km/h 17.7 km/h 46 % 0 mm 200 W/m2
18:44 29.1 °C 16.3 °C 1016.8 hPa NW 11.3 km/h 17.7 km/h 46 % 0 mm 343 W/m2
18:49 29.1 °C 16.6 °C 1016.8 hPa NW 11.3 km/h 16.1 km/h 47 % 0 mm 202 W/m2
18:54 29 °C 16.6 °C 1016.8 hPa NW 9.7 km/h 17.7 km/h 47 % 0 mm 172 W/m2
18:59 28.9 °C 16.4 °C 1016.8 hPa NW 9.7 km/h 17.7 km/h 47 % 0 mm 234 W/m2
19:04 28.9 °C 16.8 °C 1016.8 hPa NW 8 km/h 14.5 km/h 48 % 0 mm 197 W/m2
19:09 28.9 °C 16.4 °C 1017.2 hPa NW 9.7 km/h 17.7 km/h 47 % 0 mm 185 W/m2
19:14 28.8 °C 16.4 °C 1016.8 hPa NW 9.7 km/h 17.7 km/h 47 % 0 mm 127 W/m2
19:19 28.6 °C 16.5 °C 1017.2 hPa NW 9.7 km/h 16.1 km/h 48 % 0 mm 98 W/m2
19:24 28.4 °C 16.7 °C 1017.2 hPa NNW 9.7 km/h 16.1 km/h 49 % 0 mm 93 W/m2
19:29 28.2 °C 16.8 °C 1017.2 hPa NW 9.7 km/h 16.1 km/h 50 % 0 mm 134 W/m2
19:34 27.9 °C 16.8 °C 1017.2 hPa NW 9.7 km/h 17.7 km/h 51 % 0 mm 120 W/m2
19:39 27.7 °C 16.7 °C 1017.2 hPa NW 9.7 km/h 17.7 km/h 51 % 0 mm 86 W/m2
19:45 27.5 °C 16.4 °C 1017.2 hPa NW 9.7 km/h 17.7 km/h 51 % 0 mm 86 W/m2
19:50 27.2 °C 16.5 °C 1017.2 hPa NW 11.3 km/h 20.9 km/h 52 % 0 mm 100 W/m2
19:55 27 °C 16.3 °C 1017.2 hPa NW 11.3 km/h 20.9 km/h 52 % 0 mm 86 W/m2
20:00 26.9 °C 16.5 °C 1017.2 hPa NW 8 km/h 16.1 km/h 53 % 0 mm 69 W/m2
20:05 26.8 °C 16.4 °C 1017.2 hPa NW 8 km/h 19.3 km/h 53 % 0 mm 56 W/m2
20:10 26.6 °C 16.5 °C 1017.2 hPa NW 8 km/h 19.3 km/h 54 % 0 mm 54 W/m2
20:15 26.4 °C 16.1 °C 1017.2 hPa NW 8 km/h 17.7 km/h 53 % 0 mm 56 W/m2
20:20 26.2 °C 15.9 °C 1017.2 hPa NW 8 km/h 17.7 km/h 53 % 0 mm 54 W/m2
20:25 26 °C 15.7 °C 1017.2 hPa NW 8 km/h 17.7 km/h 53 % 0 mm 47 W/m2
20:30 25.9 °C 15.6 °C 1017.2 hPa NW 8 km/h 14.5 km/h 53 % 0 mm 42 W/m2
20:35 25.7 °C 15.7 °C 1017.2 hPa NW 8 km/h 16.1 km/h 54 % 0 mm 33 W/m2
20:40 25.6 °C 15.6 °C 1017.2 hPa NW 8 km/h 16.1 km/h 54 % 0 mm 28 W/m2
20:45 25.4 °C 15.4 °C 1017.5 hPa NW 6.4 km/h 12.9 km/h 54 % 0 mm 23 W/m2
20:50 25.3 °C 15.6 °C 1017.5 hPa NW 3.2 km/h 9.7 km/h 55 % 0 mm 18 W/m2
20:55 25.2 °C 15.5 °C 1017.5 hPa NW 3.2 km/h 9.7 km/h 55 % 0 mm 16 W/m2
21:00 25.1 °C 15.4 °C 1017.5 hPa NW 3.2 km/h 9.7 km/h 55 % 0 mm 14 W/m2
21:05 25 °C 15.6 °C 1017.5 hPa NW 1.6 km/h 8 km/h 56 % 0 mm 12 W/m2
21:10 24.9 °C 15.5 °C 1017.5 hPa NW 1.6 km/h 4.8 km/h 56 % 0 mm 12 W/m2
21:15 24.8 °C 15.7 °C 1017.5 hPa NW 1.6 km/h 4.8 km/h 57 % 0 mm 12 W/m2
21:20 24.6 °C 15.5 °C 1017.5 hPa NW 1.6 km/h 8 km/h 57 % 0 mm 11 W/m2
21:25 24.5 °C 15.4 °C 1017.5 hPa NW 1.6 km/h 8 km/h 57 % 0 mm 7 W/m2
21:30 24.4 °C 15.6 °C 1017.5 hPa Calm   3.2 km/h 58 % 0 mm 5 W/m2
21:35 24.3 °C 15.8 °C 1017.5 hPa Calm   4.8 km/h 59 % 0 mm 0 W/m2
21:40 24.2 °C 15.9 °C 1017.8 hPa Calm   4.8 km/h 60 % 0 mm 0 W/m2
21:45 24 °C 16 °C 1017.8 hPa Calm   3.2 km/h 61 % 0 mm 0 W/m2
21:50 23.8 °C 16.1 °C 1017.8 hPa Calm   1.6 km/h 62 % 0 mm 0 W/m2
21:55 23.7 °C 16 °C 1017.8 hPa Calm   1.6 km/h 62 % 0 mm 0 W/m2
22:00 23.4 °C 15.7 °C 1017.8 hPa Calm   1.6 km/h 62 % 0 mm 0 W/m2
22:05 23.3 °C 15.8 °C 1017.8 hPa Calm   3.2 km/h 63 % 0 mm 0 W/m2
22:10 23.1 °C 15.9 °C 1017.8 hPa Calm   3.2 km/h 64 % 0 mm 0 W/m2
22:15 22.9 °C 15.7 °C 1017.8 hPa Calm   1.6 km/h 64 % 0 mm 0 W/m2
22:20 22.8 °C 16.1 °C 1017.8 hPa Calm   3.2 km/h 66 % 0 mm 0 W/m2
22:25 22.4 °C 16.2 °C 1017.8 hPa Calm   3.2 km/h 68 % 0 mm 0 W/m2
22:30 22.1 °C 16.4 °C 1017.8 hPa Calm   3.2 km/h 70 % 0 mm 0 W/m2
22:35 21.8 °C 16.3 °C 1017.8 hPa Calm   3.2 km/h 71 % 0 mm 0 W/m2
22:41 21.6 °C 16.1 °C 1017.8 hPa Calm     71 % 0 mm 0 W/m2
22:45 21.4 °C 16.2 °C 1017.8 hPa Calm   1.6 km/h 72 % 0 mm 0 W/m2
22:50 21.3 °C 16.3 °C 1017.8 hPa Calm   1.6 km/h 73 % 0 mm 0 W/m2
22:56 21.2 °C 16.2 °C 1017.8 hPa Calm   1.6 km/h 73 % 0 mm 0 W/m2
23:01 21.1 °C 16.1 °C 1017.8 hPa NW 1.6 km/h 3.2 km/h 73 % 0 mm 0 W/m2
23:06 21 °C 16.2 °C 1017.8 hPa NW 1.6 km/h 3.2 km/h 74 % 0 mm 0 W/m2
23:11 20.9 °C 16.1 °C 1017.8 hPa Calm   3.2 km/h 74 % 0 mm 0 W/m2
23:16 20.8 °C 16 °C 1017.8 hPa Calm   1.6 km/h 74 % 0 mm 0 W/m2
23:21 20.7 °C 16.1 °C 1017.8 hPa Calm   3.2 km/h 75 % 0 mm 0 W/m2
23:26 20.6 °C 16.2 °C 1017.8 hPa NW 1.6 km/h 3.2 km/h 76 % 0 mm 0 W/m2
23:31 20.5 °C 16.1 °C 1018.2 hPa NW 1.6 km/h 6.4 km/h 76 % 0 mm 0 W/m2
23:36 20.4 °C 15.8 °C 1017.8 hPa NW 1.6 km/h 8 km/h 75 % 0 mm 0 W/m2
23:41 20.4 °C 15.8 °C 1017.8 hPa NW 3.2 km/h 8 km/h 75 % 0 mm 0 W/m2
23:44 20.5 °C 15.7 °C 1017.8 hPa NW 3.2 km/h 6.4 km/h 74 % 0 mm 0 W/m2
23:49 20.7 °C 15.9 °C 1018.2 hPa NW 3.2 km/h 8 km/h 74 % 0 mm 0 W/m2
23:54 20.8 °C 15.8 °C 1017.8 hPa NW 3.2 km/h 8 km/h 73 % 0 mm 0 W/m2
23:59 20.9 °C 15.9 °C 1017.8 hPa NW 3.2 km/h 9.7 km/h 73 % 0 mm 0 W/m2
Delerius-Weather
Compliments of Weather Underground - 2.25 mb

Data updates at regular intervals.